Time;durP1;ratioP1;P1;durP2;ratioP2;P2;SDS_P1;SDS_P2;PMS_P1;PMS_P2;Temp;Humidity;BMP_temperature;BMP_pressure;BME280_temperature;BME280_humidity;BME280_pressure;Samples;Min_cycle;Max_cycle;Signal;HPM_P1;HPM_P2
2022/08/30 00:01:23;;;;;;;6.18;2.95;;;16.90;99.90;;;;;;5034176;28;20115;-78
2022/08/30 00:03:49;;;;;;;4.13;2.78;;;16.90;99.90;;;;;;5034337;28;20052;-78
2022/08/30 00:06:17;;;;;;;4.07;2.92;;;16.90;99.90;;;;;;5034365;28;20045;-78
2022/08/30 00:08:44;;;;;;;5.10;2.70;;;16.90;99.90;;;;;;5034535;28;20045;-78
2022/08/30 00:11:11;;;;;;;;;;;16.80;99.90;;;;;;5034637;28;20492;-78
2022/08/30 00:13:38;;;;;;;3.65;2.45;;;16.90;99.90;;;;;;5034039;28;19921;-78
2022/08/30 00:16:05;;;;;;;5.68;3.05;;;16.80;99.90;;;;;;5034163;28;20049;-78
2022/08/30 00:18:34;;;;;;;4.72;2.80;;;16.90;99.90;;;;;;5034190;28;20049;-78
2022/08/30 00:21:01;;;;;;;5.50;2.95;;;16.80;99.90;;;;;;5034070;28;20041;-78
2022/08/30 00:23:26;;;;;;;4.18;2.47;;;16.80;99.90;;;;;;5032979;28;20055;-78
2022/08/30 00:25:52;;;;;;;4.10;2.70;;;16.80;99.90;;;;;;5034049;28;20045;-78
2022/08/30 00:28:18;;;;;;;4.93;2.87;;;16.80;99.90;;;;;;5033809;28;20046;-78
2022/08/30 00:30:44;;;;;;;4.13;2.60;;;16.80;99.90;;;;;;5034395;28;20389;-78
2022/08/30 00:33:11;;;;;;;4.30;3.13;;;16.80;99.90;;;;;;5033651;28;20444;-78
2022/08/30 00:35:38;;;;;;;;;;;16.80;99.90;;;;;;5034297;28;20405;-78
2022/08/30 00:38:05;;;;;;;8.93;3.88;;;16.70;99.90;;;;;;5034136;28;20007;-77
2022/08/30 00:40:32;;;;;;;4.30;3.03;;;16.70;99.90;;;;;;5033769;28;20056;-78
2022/08/30 00:42:59;;;;;;;4.85;2.90;;;16.70;99.90;;;;;;5033820;28;20088;-78
2022/08/30 00:45:36;;;;;;;7.70;2.90;;;16.70;99.90;;;;;;5033361;28;20057;-78
2022/08/30 00:48:03;;;;;;;5.85;3.03;;;16.70;99.90;;;;;;5034069;28;20045;-78
2022/08/30 00:50:34;;;;;;;;;;;16.70;99.90;;;;;;5034144;28;20046;-78
2022/08/30 00:53:03;;;;;;;6.15;3.15;;;16.70;99.90;;;;;;5033376;28;20311;-78
2022/08/30 00:55:29;;;;;;;4.90;3.00;;;16.80;99.90;;;;;;5033613;28;20071;-78
2022/08/30 00:57:59;;;;;;;5.73;3.07;;;16.70;99.90;;;;;;5033647;28;20536;-78
2022/08/30 01:00:25;;;;;;;3.83;2.40;;;16.70;99.90;;;;;;5033943;28;20092;-78
2022/08/30 01:02:50;;;;;;;6.80;3.10;;;16.70;99.90;;;;;;5032797;28;20057;-78
2022/08/30 01:05:16;;;;;;;5.13;3.10;;;16.70;99.90;;;;;;5033829;28;20037;-78
2022/08/30 01:07:42;;;;;;;4.70;3.40;;;16.60;99.90;;;;;;5033501;28;20482;-78
2022/08/30 01:10:14;;;;;;;5.63;3.10;;;16.60;99.90;;;;;;5033511;28;20054;-78
2022/08/30 01:12:41;;;;;;;5.28;3.50;;;16.60;99.90;;;;;;5033509;28;20045;-78
2022/08/30 01:15:08;;;;;;;7.40;3.60;;;16.60;99.90;;;;;;5033036;28;20057;-78
2022/08/30 01:17:35;;;;;;;6.65;3.47;;;16.50;99.90;;;;;;5033635;28;20416;-78
2022/08/30 01:20:11;;;;;;;5.47;3.67;;;16.50;99.90;;;;;;5033587;28;20124;-78
2022/08/30 01:22:49;;;;;;;3.50;3.17;;;16.50;99.90;;;;;;5033456;28;20393;-78
2022/08/30 01:25:18;;;;;;;9.70;4.00;;;16.50;99.90;;;;;;5033324;28;20128;-78
2022/08/30 01:27:50;;;;;;;4.10;3.15;;;16.50;99.90;;;;;;5032246;28;20420;-78
2022/08/30 01:30:16;;;;;;;5.32;3.10;;;16.50;99.90;;;;;;5033373;28;20053;-78
2022/08/30 01:32:45;;;;;;;6.23;2.90;;;16.40;99.90;;;;;;5033207;28;20041;-78
2022/08/30 01:35:14;;;;;;;5.45;3.50;;;16.40;99.90;;;;;;5033267;28;20049;-78
2022/08/30 01:37:40;;;;;;;5.47;3.60;;;16.40;99.90;;;;;;5033281;28;20045;-77
2022/08/30 01:40:07;;;;;;;6.30;3.00;;;16.30;99.90;;;;;;5033349;28;20045;-78
2022/08/30 01:42:33;;;;;;;;;;;16.30;99.90;;;;;;5033577;28;20272;-78
2022/08/30 01:44:58;;;;;;;6.05;3.50;;;16.20;99.90;;;;;;5035622;28;19928;-78
2022/08/30 01:47:24;;;;;;;4.30;3.20;;;16.10;99.90;;;;;;5035761;28;20049;-78
2022/08/30 01:49:50;;;;;;;3.77;3.00;;;16.10;99.90;;;;;;5036931;28;20389;-78
2022/08/30 01:52:16;;;;;;;4.40;3.20;;;16.20;99.90;;;;;;5037293;28;20038;-78
2022/08/30 01:54:44;;;;;;;4.00;3.13;;;16.10;99.90;;;;;;5036833;28;20053;-78
2022/08/30 01:57:14;;;;;;;4.00;3.10;;;16.10;99.90;;;;;;5036586;28;20532;-78
2022/08/30 01:59:42;;;;;;;4.82;3.63;;;16.00;99.90;;;;;;5036943;28;20092;-78
2022/08/30 02:02:08;;;;;;;5.32;3.50;;;16.00;99.90;;;;;;5035441;28;20055;-77
2022/08/30 02:04:35;;;;;;;5.10;3.90;;;16.00;99.90;;;;;;5036502;28;20576;-78
2022/08/30 02:07:01;;;;;;;;;;;15.90;99.90;;;;;;5036780;28;20485;-78
2022/08/30 02:09:27;;;;;;;7.75;3.10;;;15.90;99.90;;;;;;5036898;28;19921;-78
2022/08/30 02:11:53;;;;;;;4.57;3.63;;;15.80;99.90;;;;;;5035370;28;20382;-78
2022/08/30 02:14:18;;;;;;;5.47;3.50;;;15.80;99.90;;;;;;5036296;28;20362;-77
2022/08/30 02:16:45;;;;;;;5.00;4.43;;;15.80;99.90;;;;;;5036323;28;20068;-78
2022/08/30 02:19:10;;;;;;;4.28;3.40;;;15.70;99.90;;;;;;5036392;28;20455;-77
2022/08/30 02:21:36;;;;;;;6.07;4.27;;;15.70;99.90;;;;;;5036706;28;20084;-77
2022/08/30 02:24:02;;;;;;;5.00;4.10;;;15.70;99.90;;;;;;5035553;28;20477;-78
2022/08/30 02:26:27;;;;;;;5.17;3.70;;;15.70;99.90;;;;;;5036331;28;20137;-78
2022/08/30 02:28:53;;;;;;;5.93;4.33;;;15.70;99.90;;;;;;5036192;28;20465;-78
2022/08/30 02:31:21;;;;;;;7.00;4.10;;;15.70;99.90;;;;;;5035769;28;20045;-78
2022/08/30 02:33:49;;;;;;;8.07;4.30;;;15.70;99.90;;;;;;5035741;28;20114;-78
2022/08/30 02:36:14;;;;;;;5.88;4.25;;;15.70;99.90;;;;;;5036454;28;20088;-77
2022/08/30 02:38:40;;;;;;;4.90;3.93;;;15.70;99.90;;;;;;5036336;28;20080;-78
2022/08/30 02:41:06;;;;;;;5.75;4.63;;;15.70;99.90;;;;;;5035878;28;20046;-77
2022/08/30 02:43:31;;;;;;;6.37;3.63;;;15.60;99.90;;;;;;5034799;28;20041;-77
2022/08/30 02:45:57;;;;;;;5.20;4.50;;;15.70;99.90;;;;;;5036031;28;20045;-78
2022/08/30 02:48:23;;;;;;;5.50;4.00;;;15.70;99.90;;;;;;5034633;28;20056;-77
2022/08/30 02:50:50;;;;;;;6.40;3.90;;;15.50;99.90;;;;;;5035791;28;20052;-77
2022/08/30 02:53:16;;;;;;;5.68;3.67;;;15.50;99.90;;;;;;5035697;28;20045;-78
2022/08/30 02:55:42;;;;;;;5.37;4.37;;;15.90;99.90;;;;;;5035187;28;20426;-77
2022/08/30 02:58:09;;;;;;;8.90;4.37;;;15.50;99.90;;;;;;5035631;28;20103;-78
2022/08/30 03:00:35;;;;;;;7.00;4.13;;;15.50;99.90;;;;;;5035675;28;20049;-77
2022/08/30 03:03:02;;;;;;;4.95;3.80;;;15.40;99.90;;;;;;5035635;28;20465;-77
2022/08/30 03:05:29;;;;;;;5.80;3.97;;;15.40;99.90;;;;;;5035465;28;20068;-77
2022/08/30 03:07:55;;;;;;;;;;;15.40;99.90;;;;;;5035872;28;20059;-77
2022/08/30 03:10:21;;;;;;;5.32;3.65;;;15.30;99.90;;;;;;5035390;28;20012;-77
2022/08/30 03:12:46;;;;;;;5.17;4.00;;;15.30;99.90;;;;;;5035249;28;20429;-78
2022/08/30 03:15:13;;;;;;;6.20;4.10;;;15.30;99.90;;;;;;5035426;28;20495;-78
2022/08/30 03:17:39;;;;;;;5.82;3.97;;;15.20;99.90;;;;;;5035164;28;20094;-77
2022/08/30 03:20:06;;;;;;;5.88;4.07;;;15.20;99.90;;;;;;5034942;28;20056;-77
2022/08/30 03:22:32;;;;;;;5.28;3.90;;;15.10;99.90;;;;;;5035015;28;20171;-77
2022/08/30 03:25:00;;;;;;;5.53;3.97;;;15.10;99.90;;;;;;5034812;28;20132;-77
2022/08/30 03:27:27;;;;;;;6.45;4.07;;;15.00;99.90;;;;;;5034120;28;20102;-77
2022/08/30 03:29:52;;;;;;;;;;;15.00;99.90;;;;;;5035489;28;20050;-77
2022/08/30 03:32:18;;;;;;;6.70;3.88;;;14.80;99.90;;;;;;5034826;28;19932;-77
2022/08/30 03:34:44;;;;;;;6.13;3.67;;;14.90;99.90;;;;;;5035418;28;20052;-77
2022/08/30 03:37:09;;;;;;;8.10;4.53;;;14.90;99.90;;;;;;5034887;28;20048;-77
2022/08/30 03:39:36;;;;;;;4.90;3.77;;;14.80;99.90;;;;;;5035138;28;20049;-78
2022/08/30 03:42:01;;;;;;;4.43;3.60;;;14.80;99.90;;;;;;5034841;28;20041;-77
2022/08/30 03:44:27;;;;;;;5.50;3.70;;;14.80;99.90;;;;;;5034731;28;20053;-77
2022/08/30 03:46:52;;;;;;;5.50;4.37;;;14.70;99.90;;;;;;5034675;28;20405;-77
2022/08/30 03:49:19;;;;;;;5.90;4.88;;;14.60;99.90;;;;;;5034668;28;20091;-77
2022/08/30 03:51:45;;;;;;;7.85;4.95;;;14.60;99.90;;;;;;5034554;28;20033;-77
2022/08/30 03:54:10;;;;;;;7.27;5.30;;;14.60;99.90;;;;;;5034660;28;20045;-77
2022/08/30 03:56:36;;;;;;;6.17;5.13;;;14.50;99.90;;;;;;5034770;28;20543;-77
2022/08/30 03:59:02;;;;;;;7.57;5.20;;;14.40;99.90;;;;;;5034612;28;20049;-77
2022/08/30 04:01:27;;;;;;;7.90;6.30;;;14.40;99.90;;;;;;5033228;28;20068;-77
2022/08/30 04:03:55;;;;;;;6.68;6.07;;;14.30;99.90;;;;;;5034851;28;20107;-77
2022/08/30 04:06:21;;;;;;;6.88;5.72;;;14.20;99.90;;;;;;5034358;28;20396;-77
2022/08/30 04:08:47;;;;;;;7.67;6.10;;;14.30;99.90;;;;;;5033541;28;20393;-77
2022/08/30 04:11:14;;;;;;;7.40;5.77;;;14.20;99.90;;;;;;5034132;28;20048;-77
2022/08/30 04:13:40;;;;;;;6.90;6.05;;;14.20;99.90;;;;;;5034111;28;20084;-77
2022/08/30 04:16:05;;;;;;;7.33;6.27;;;14.20;99.90;;;;;;5034202;28;20124;-76
2022/08/30 04:18:31;;;;;;;6.33;5.43;;;14.20;99.90;;;;;;5034179;28;20072;-77
2022/08/30 04:20:57;;;;;;;8.02;6.40;;;14.20;99.90;;;;;;5034127;28;20068;-77
2022/08/30 04:23:22;;;;;;;8.00;7.20;;;14.20;99.90;;;;;;5034055;28;20041;-77
2022/08/30 04:25:48;;;;;;;7.00;6.18;;;14.20;99.90;;;;;;5034365;28;20037;-77
2022/08/30 04:28:13;;;;;;;9.53;7.17;;;14.20;99.90;;;;;;5033843;28;20045;-77
2022/08/30 04:30:41;;;;;;;7.13;6.43;;;14.10;99.90;;;;;;5033965;28;20049;-77
2022/08/30 04:33:07;;;;;;;7.80;6.82;;;14.10;99.90;;;;;;5033834;28;20045;-78
2022/08/30 04:35:32;;;;;;;8.13;6.47;;;14.00;99.90;;;;;;5033852;28;20155;-78
2022/08/30 04:37:58;;;;;;;8.30;7.43;;;14.00;99.90;;;;;;5033813;28;20050;-77
2022/08/30 04:40:24;;;;;;;8.13;6.67;;;14.00;99.90;;;;;;5033777;28;20405;-77
2022/08/30 04:42:53;;;;;;;7.97;7.17;;;14.20;99.90;;;;;;5033793;28;20095;-77
2022/08/30 04:45:19;;;;;;;8.38;7.18;;;14.00;99.90;;;;;;5033717;28;20087;-77
2022/08/30 04:47:45;;;;;;;8.95;7.40;;;13.90;99.90;;;;;;5033678;28;20068;-77
2022/08/30 04:50:13;;;;;;;8.20;6.90;;;14.00;99.90;;;;;;5033708;28;20037;-77
2022/08/30 04:52:39;;;;;;;8.45;6.68;;;14.10;99.90;;;;;;5033593;28;20063;-77
2022/08/30 04:55:06;;;;;;;7.80;7.00;;;14.00;99.90;;;;;;5033952;28;20124;-77
2022/08/30 04:57:32;;;;;;;9.18;8.05;;;13.90;99.90;;;;;;5033418;28;20404;-77
2022/08/30 04:59:57;;;;;;;9.77;7.95;;;13.90;99.90;;;;;;5016175;28;20053;-77
2022/08/30 05:02:23;;;;;;;8.60;7.07;;;13.90;99.90;;;;;;5032408;28;20041;-77
2022/08/30 05:07:33;;;;;;;8.27;6.88;;;13.90;99.90;;;;;;5033949;28;20088;-77
2022/08/30 05:09:59;;;;;;;9.37;6.80;;;13.90;99.90;;;;;;5033492;28;20575;-77
2022/08/30 05:12:24;;;;;;;7.35;6.60;;;13.80;99.90;;;;;;5033436;28;20112;-77
2022/08/30 05:14:51;;;;;;;8.20;7.40;;;13.80;99.90;;;;;;5033508;28;20049;-77
2022/08/30 05:17:16;;;;;;;9.57;7.43;;;13.80;99.90;;;;;;5032727;28;20099;-77
2022/08/30 05:19:42;;;;;;;11.38;7.85;;;13.70;99.90;;;;;;5035898;28;20470;-77
2022/08/30 05:22:08;;;;;;;8.38;7.47;;;13.70;99.90;;;;;;5037352;28;20052;-77
2022/08/30 05:24:34;;;;;;;10.13;6.67;;;13.80;99.90;;;;;;5037399;28;20092;-77
2022/08/30 05:27:01;;;;;;;8.15;6.50;;;13.80;99.90;;;;;;5037362;28;20051;-77
2022/08/30 05:29:26;;;;;;;10.80;7.15;;;14.00;99.90;;;;;;5036082;28;20056;-77
2022/08/30 05:31:52;;;;;;;8.53;7.73;;;13.80;99.90;;;;;;5037572;28;20042;-77
2022/08/30 05:34:19;;;;;;;10.23;8.00;;;13.80;99.90;;;;;;5037566;28;20080;-77
2022/08/30 05:36:45;;;;;;;8.90;8.00;;;13.90;99.90;;;;;;5037167;28;20107;-77
2022/08/30 05:39:11;;;;;;;10.30;7.43;;;13.90;99.90;;;;;;5037063;28;20041;-77
2022/08/30 05:41:37;;;;;;;7.93;6.80;;;13.90;99.90;;;;;;5037159;28;20037;-77
2022/08/30 05:44:04;;;;;;;9.45;8.07;;;13.90;99.90;;;;;;5036989;28;20049;-77
2022/08/30 05:46:33;;;;;;;9.00;7.20;;;14.00;99.90;;;;;;5037412;28;20138;-77
2022/08/30 05:49:03;;;;;;;9.68;7.05;;;14.00;99.90;;;;;;5037116;28;20370;-77
2022/08/30 05:51:30;;;;;;;8.43;6.88;;;14.00;99.90;;;;;;5036738;28;20045;-77
2022/08/30 05:53:57;;;;;;;8.23;7.03;;;14.00;99.90;;;;;;5035935;28;20049;-77
2022/08/30 05:56:27;;;;;;;;;;;14.00;99.90;;;;;;5037220;28;20041;-77
2022/08/30 05:58:54;;;;;;;7.50;6.70;;;14.00;99.90;;;;;;5036685;28;19921;-77
2022/08/30 06:01:20;;;;;;;12.48;6.28;;;14.10;99.90;;;;;;5036739;28;20053;-77
2022/08/30 06:03:46;;;;;;;;;;;14.10;99.90;;;;;;5036103;28;20049;-77
2022/08/30 06:06:12;;;;;;;6.80;6.10;;;14.10;99.90;;;;;;5036597;28;19928;-77
2022/08/30 06:08:38;;;;;;;9.70;7.17;;;14.20;99.90;;;;;;5036334;28;20045;-77
2022/08/30 06:11:03;;;;;;;8.45;5.95;;;14.20;99.90;;;;;;5035490;28;20049;-77
2022/08/30 06:13:30;;;;;;;7.93;6.30;;;14.20;99.90;;;;;;5036290;28;20092;-77
2022/08/30 06:15:56;;;;;;;7.13;5.63;;;14.20;99.90;;;;;;5036745;28;20099;-77
2022/08/30 06:18:22;;;;;;;9.52;6.00;;;14.30;99.90;;;;;;5035308;28;20501;-77
2022/08/30 06:20:50;;;;;;;7.38;5.38;;;14.30;99.90;;;;;;5036335;28;20045;-77
2022/08/30 06:23:16;;;;;;;7.50;5.70;;;14.40;99.90;;;;;;5036215;28;20099;-77
2022/08/30 06:25:42;;;;;;;7.28;5.40;;;14.50;99.90;;;;;;5035985;28;20111;-77
2022/08/30 06:28:08;;;;;;;6.47;4.72;;;14.50;99.90;;;;;;5035228;28;20439;-77
2022/08/30 06:30:34;;;;;;;6.57;5.10;;;14.60;99.90;;;;;;5034837;28;20050;-77
2022/08/30 06:33:00;;;;;;;6.40;5.20;;;14.70;99.90;;;;;;5036111;28;20042;-77
2022/08/30 06:35:27;;;;;;;4.90;4.28;;;14.90;99.90;;;;;;5034911;28;20439;-77
2022/08/30 06:37:53;;;;;;;7.93;4.45;;;15.00;99.90;;;;;;5036007;28;20045;-77
2022/08/30 06:40:20;;;;;;;4.83;3.80;;;15.10;99.90;;;;;;5036070;28;20046;-77
2022/08/30 06:42:46;;;;;;;4.07;3.50;;;15.20;99.90;;;;;;5035187;28;20088;-77
2022/08/30 06:45:14;;;;;;;7.03;3.67;;;15.40;99.90;;;;;;5035941;28;20053;-77
2022/08/30 06:47:40;;;;;;;6.00;3.95;;;15.50;99.90;;;;;;5035775;28;20490;-77
2022/08/30 06:50:06;;;;;;;3.87;3.20;;;15.60;99.90;;;;;;5035784;28;20056;-77
2022/08/30 06:52:32;;;;;;;4.75;3.17;;;15.80;99.90;;;;;;5035761;28;20048;-77
2022/08/30 06:54:58;;;;;;;5.87;3.23;;;15.90;99.90;;;;;;5035572;28;20473;-78
2022/08/30 06:57:25;;;;;;;3.90;3.23;;;16.10;99.90;;;;;;5035264;28;20049;-78
2022/08/30 06:59:54;;;;;;;;;;;16.20;99.90;;;;;;5036344;28;20389;-78
2022/08/30 07:02:19;;;;;;;4.53;2.60;;;16.40;99.90;;;;;;5035738;28;20277;-78
2022/08/30 07:04:45;;;;;;;4.70;2.50;;;16.50;99.90;;;;;;5018479;28;20049;-78
2022/08/30 07:07:10;;;;;;;6.83;2.40;;;16.60;99.90;;;;;;5035362;28;20492;-78
2022/08/30 07:09:41;;;;;;;3.73;2.47;;;16.70;99.90;;;;;;5035238;28;20123;-78
2022/08/30 07:12:08;;;;;;;3.95;2.40;;;16.80;99.90;;;;;;5035453;28;20046;-78
2022/08/30 07:14:34;;;;;;;4.18;2.45;;;16.90;99.90;;;;;;5034880;28;20104;-78
2022/08/30 07:17:00;;;;;;;3.72;2.38;;;17.00;99.90;;;;;;5035205;28;20096;-78
2022/08/30 07:19:26;;;;;;;4.53;1.97;;;17.10;99.90;;;;;;5035149;28;20148;-78
2022/08/30 07:21:51;;;;;;;3.60;2.13;;;17.20;99.90;;;;;;5035260;28;20048;-78
2022/08/30 07:24:18;;;;;;;3.33;2.20;;;17.30;99.90;;;;;;5034709;28;20103;-79
2022/08/30 07:26:48;;;;;;;4.38;2.00;;;17.40;99.90;;;;;;5034993;28;20124;-78
2022/08/30 07:29:15;;;;;;;3.33;1.70;;;17.50;99.90;;;;;;5018983;28;20049;-77
2022/08/30 07:31:43;;;;;;;5.80;1.63;;;17.60;99.90;;;;;;5034981;28;20038;-78
2022/08/30 07:34:09;;;;;;;4.00;1.70;;;17.60;99.90;;;;;;5036214;28;20045;-78
2022/08/30 07:36:37;;;;;;;6.23;1.80;;;17.70;99.90;;;;;;5034919;28;20516;-78
2022/08/30 07:39:04;;;;;;;3.70;1.80;;;17.80;99.90;;;;;;5034803;28;20168;-78
2022/08/30 07:41:34;;;;;;;3.75;1.45;;;18.00;99.90;;;;;;5034761;28;20045;-78
2022/08/30 07:44:00;;;;;;;3.85;1.50;;;18.00;99.90;;;;;;5034370;28;20059;-78
2022/08/30 07:46:26;;;;;;;2.85;1.48;;;18.10;99.90;;;;;;5034824;28;20384;-78
2022/08/30 07:48:54;;;;;;;3.63;1.42;;;18.20;99.90;;;;;;5034710;28;20040;-77
2022/08/30 07:51:23;;;;;;;6.72;1.60;;;18.20;99.90;;;;;;5034538;28;20057;-78
2022/08/30 07:53:48;;;;;;;3.25;1.67;;;18.30;99.90;;;;;;5035073;28;20041;-78
2022/08/30 07:56:14;;;;;;;3.83;1.70;;;18.30;99.90;;;;;;5034519;28;20048;-78
2022/08/30 07:58:40;;;;;;;5.50;1.83;;;18.40;99.90;;;;;;5035011;28;20121;-78
2022/08/30 08:01:08;;;;;;;2.50;1.33;;;18.60;99.90;;;;;;5034689;28;20371;-78
2022/08/30 08:03:34;;;;;;;4.13;1.92;;;18.60;99.90;;;;;;5034402;28;20048;-78
2022/08/30 08:06:02;;;;;;;3.63;1.98;;;18.70;99.90;;;;;;5034453;28;20045;-78
2022/08/30 08:08:28;;;;;;;3.50;1.50;;;18.80;99.90;;;;;;5033992;28;20493;-78
2022/08/30 08:10:54;;;;;;;3.50;1.77;;;19.00;99.90;;;;;;5034046;28;20524;-78
2022/08/30 08:13:20;;;;;;;3.60;1.70;;;19.00;99.90;;;;;;5034041;28;20296;-78
2022/08/30 08:15:45;;;;;;;3.13;1.63;;;19.00;99.90;;;;;;5034446;28;20101;-78
2022/08/30 08:18:11;;;;;;;3.63;1.73;;;19.00;99.90;;;;;;5034356;28;20124;-78
2022/08/30 08:20:37;;;;;;;5.27;1.60;;;19.10;99.90;;;;;;5034124;28;20131;-78
2022/08/30 08:23:03;;;;;;;3.57;1.80;;;19.10;99.90;;;;;;5034016;28;20493;-78
2022/08/30 08:25:29;;;;;;;4.63;1.60;;;19.20;99.90;;;;;;5034347;28;20049;-78
2022/08/30 08:27:55;;;;;;;3.27;1.47;;;19.20;99.90;;;;;;5034330;28;20129;-78
2022/08/30 08:30:22;;;;;;;3.53;1.65;;;19.20;99.90;;;;;;5034145;28;20077;-78
2022/08/30 08:32:49;;;;;;;3.15;1.55;;;19.30;99.90;;;;;;5033780;28;20053;-78
2022/08/30 08:35:16;;;;;;;3.28;1.60;;;19.40;99.90;;;;;;5033889;28;20516;-78
2022/08/30 08:37:42;;;;;;;3.53;1.65;;;19.40;99.90;;;;;;5032687;28;20052;-78
2022/08/30 08:40:13;;;;;;;1.80;1.20;;;19.40;99.90;;;;;;5033193;28;20049;-78
2022/08/30 08:43:06;;;;;;;4.35;1.30;;;19.60;99.90;;;;;;5033862;28;20048;-78
2022/08/30 08:45:37;;;;;;;4.68;1.52;;;19.60;99.90;;;;;;5033735;28;20394;-78
2022/08/30 08:48:09;;;;;;;2.78;1.40;;;19.70;99.90;;;;;;5032823;28;20045;-78
2022/08/30 08:50:35;;;;;;;2.10;1.17;;;19.80;99.90;;;;;;5033425;28;20504;-78
2022/08/30 08:55:57;;;;;;;2.50;1.30;;;19.80;99.90;;;;;;5033609;28;20132;-78
2022/08/30 08:58:27;;;;;;;3.43;1.23;;;19.90;99.90;;;;;;5033586;28;20129;-78
2022/08/30 09:00:55;;;;;;;2.20;1.27;;;19.90;99.90;;;;;;5034065;28;20041;-78
2022/08/30 09:03:25;;;;;;;2.03;1.15;;;20.00;99.90;;;;;;5032929;28;20037;-78
2022/08/30 09:05:52;;;;;;;3.17;1.23;;;20.20;99.90;;;;;;5033570;28;20137;-78
2022/08/30 09:08:19;;;;;;;2.55;1.50;;;20.10;99.90;;;;;;5033637;28;20052;-78
2022/08/30 09:10:57;;;;;;;3.65;1.20;;;20.30;99.90;;;;;;5033624;28;20049;-78
2022/08/30 09:13:24;;;;;;;3.95;1.55;;;20.40;99.90;;;;;;5033916;28;20381;-79
2022/08/30 09:15:52;;;;;;;4.50;1.35;;;20.50;99.90;;;;;;5033453;28;20115;-78
2022/08/30 09:18:18;;;;;;;4.95;1.50;;;20.60;99.90;;;;;;5033919;28;20408;-79
2022/08/30 09:20:47;;;;;;;4.93;1.37;;;20.60;99.90;;;;;;5033514;28;20037;-79
2022/08/30 09:23:13;;;;;;;2.92;1.38;;;20.60;99.90;;;;;;5033428;28;20038;-78
2022/08/30 09:25:59;;;;;;;2.20;1.00;;;20.60;99.90;;;;;;5033439;28;20049;-78
2022/08/30 09:28:31;;;;;;;2.45;1.10;;;20.70;99.90;;;;;;5033968;28;20052;-78
2022/08/30 09:31:20;;;;;;;3.78;1.30;;;20.80;99.90;;;;;;5033644;28;20405;-77
2022/08/30 09:34:02;;;;;;;2.92;1.20;;;20.70;99.90;;;;;;5033376;28;20512;-78
2022/08/30 09:36:32;;;;;;;3.28;1.30;;;20.70;99.90;;;;;;5033950;28;20085;-78
2022/08/30 09:39:01;;;;;;;3.75;1.17;;;20.80;99.90;;;;;;5033683;28;20041;-78
2022/08/30 09:41:41;;;;;;;2.72;1.20;;;20.80;99.90;;;;;;5033099;28;20493;-78
2022/08/30 09:44:15;;;;;;;4.05;1.15;;;21.00;99.90;;;;;;5033187;28;20558;-78
2022/08/30 09:46:53;;;;;;;3.33;1.50;;;20.90;99.90;;;;;;5033238;28;20088;-78
2022/08/30 09:49:36;;;;;;;1.83;1.02;;;20.90;99.90;;;;;;5033583;28;20374;-78
2022/08/30 09:52:11;;;;;;;3.25;1.00;;;21.00;99.90;;;;;;5033196;28;20445;-78
2022/08/30 09:55:07;;;;;;;2.92;1.20;;;21.00;99.90;;;;;;5033241;28;20132;-78
2022/08/30 09:58:02;;;;;;;1.85;1.08;;;21.10;99.90;;;;;;5000210;28;20067;-78
2022/08/30 10:00:31;;;;;;;3.00;1.00;;;21.20;99.90;;;;;;5032904;28;20420;-78
2022/08/30 10:03:23;;;;;;;2.13;1.00;;;21.30;99.90;;;;;;5032000;28;20046;-78
2022/08/30 10:05:51;;;;;;;2.72;1.10;;;21.30;99.90;;;;;;5023105;28;20061;-79
2022/08/30 10:08:50;;;;;;;3.55;1.20;;;21.40;99.90;;;;;;5036549;28;20049;-78
2022/08/30 10:11:30;;;;;;;2.88;1.13;;;21.40;99.00;;;;;;5036542;28;20045;-79
2022/08/30 10:14:02;;;;;;;3.17;1.27;;;21.30;99.40;;;;;;5036700;28;20065;-79
2022/08/30 10:16:39;;;;;;;2.13;1.00;;;21.50;99.30;;;;;;5035304;28;20061;-78
2022/08/30 10:19:41;;;;;;;3.50;1.20;;;21.50;98.90;;;;;;5036449;28;20479;-79
2022/08/30 10:22:40;;;;;;;1.83;0.98;;;21.50;98.10;;;;;;5036399;28;20075;-79
2022/08/30 10:25:12;;;;;;;1.67;0.95;;;21.60;98.20;;;;;;5032505;28;20060;-79
2022/08/30 10:27:48;;;;;;;5.38;1.20;;;21.70;98.60;;;;;;5036518;28;20049;-79
2022/08/30 10:30:15;;;;;;;2.72;1.13;;;21.80;98.30;;;;;;5036292;28;20101;-79
2022/08/30 10:33:03;;;;;;;3.45;1.10;;;21.90;97.60;;;;;;5036502;28;20056;-79
2022/08/30 10:35:36;;;;;;;1.80;1.05;;;21.90;96.40;;;;;;5036167;28;20041;-79
2022/08/30 10:38:25;;;;;;;3.30;1.30;;;21.90;96.00;;;;;;5036090;28;20052;-79
2022/08/30 10:41:22;;;;;;;3.40;1.23;;;22.00;96.80;;;;;;5025035;28;20057;-79
2022/08/30 10:43:56;;;;;;;5.22;1.60;;;22.00;96.80;;;;;;5036276;28;20049;-79
2022/08/30 10:46:25;;;;;;;1.55;0.93;;;22.10;94.90;;;;;;5035914;28;20045;-79
2022/08/30 10:48:53;;;;;;;3.35;1.27;;;22.00;95.30;;;;;;5036025;28;20100;-79
2022/08/30 10:51:51;;;;;;;1.92;0.98;;;22.10;96.00;;;;;;5035674;28;20041;-79
2022/08/30 10:54:34;;;;;;;2.47;1.10;;;22.10;95.50;;;;;;5005166;28;20067;-79
2022/08/30 10:57:00;;;;;;;3.88;1.10;;;22.20;95.40;;;;;;5035868;28;20041;-79
2022/08/30 10:59:26;;;;;;;4.13;1.33;;;22.20;94.90;;;;;;5035795;28;20056;-78
2022/08/30 11:02:14;;;;;;;3.10;1.08;;;22.30;95.70;;;;;;5035641;28;20099;-79
2022/08/30 11:05:20;;;;;;;2.05;1.02;;;22.40;95.30;;;;;;5035665;28;20052;-79
2022/08/30 11:08:12;;;;;;;1.77;0.93;;;22.60;94.50;;;;;;5035711;28;20053;-79
2022/08/30 11:11:16;;;;;;;1.50;1.00;;;22.60;94.60;;;;;;5036005;28;20042;-79
2022/08/30 11:13:43;;;;;;;3.00;0.93;;;22.70;95.00;;;;;;5006534;28;20497;-79
2022/08/30 11:16:18;;;;;;;3.10;1.10;;;22.70;95.00;;;;;;5035470;28;20400;-79
2022/08/30 11:18:49;;;;;;;5.55;1.20;;;22.80;94.70;;;;;;5035009;28;20056;-79
2022/08/30 11:21:30;;;;;;;1.90;1.00;;;22.90;93.70;;;;;;5035283;28;20049;-79
2022/08/30 11:24:20;;;;;;;1.85;0.90;;;22.90;93.00;;;;;;5034100;28;20088;-79
2022/08/30 11:26:49;;;;;;;4.78;1.42;;;22.90;93.90;;;;;;5035219;28;20052;-77
2022/08/30 11:29:42;;;;;;;3.50;1.20;;;23.10;94.50;;;;;;5035127;28;20156;-77
2022/08/30 11:32:17;;;;;;;3.55;1.13;;;23.20;94.50;;;;;;5035362;28;20401;-79
2022/08/30 11:34:45;;;;;;;2.42;0.98;;;23.30;94.90;;;;;;5034696;28;20489;-79
2022/08/30 11:37:36;;;;;;;3.22;1.00;;;23.30;94.70;;;;;;5034885;28;20041;-79
2022/08/30 11:40:03;;;;;;;6.88;1.45;;;23.40;94.60;;;;;;5034819;28;20049;-79
2022/08/30 11:42:39;;;;;;;2.60;1.10;;;23.40;94.00;;;;;;5034737;28;20393;-79
2022/08/30 11:45:22;;;;;;;2.50;1.10;;;23.30;93.90;;;;;;5034800;28;20083;-79
2022/08/30 11:47:52;;;;;;;2.10;0.95;;;23.30;93.70;;;;;;5033627;28;20046;-79
2022/08/30 11:50:53;;;;;;;3.65;1.23;;;23.50;94.00;;;;;;5034574;28;20102;-79
2022/08/30 11:53:46;;;;;;;1.60;1.00;;;23.60;93.90;;;;;;5034744;28;20085;-79
2022/08/30 11:56:41;;;;;;;5.38;1.20;;;23.60;93.70;;;;;;5033192;28;20132;-78
2022/08/30 11:59:19;;;;;;;2.05;0.90;;;23.80;94.20;;;;;;5034557;28;20045;-79
2022/08/30 12:01:45;;;;;;;3.20;0.90;;;23.90;93.60;;;;;;5034490;28;20037;-78
2022/08/30 12:04:34;;;;;;;2.40;0.90;;;24.00;93.50;;;;;;5034366;28;20057;-78
2022/08/30 12:07:06;;;;;;;2.03;0.93;;;23.70;93.60;;;;;;5022414;28;20505;-79
2022/08/30 12:09:35;;;;;;;1.70;0.90;;;23.50;94.20;;;;;;5034732;28;20056;-79
2022/08/30 12:12:06;;;;;;;1.55;0.85;;;23.40;94.40;;;;;;5034208;28;20600;-79
2022/08/30 12:14:48;;;;;;;2.95;1.10;;;23.50;94.90;;;;;;5032781;28;20088;-79
2022/08/30 12:20:21;;;;;;;2.38;0.70;;;24.00;93.70;;;;;;5033284;28;20090;-79
2022/08/30 12:22:47;;;;;;;2.50;0.90;;;24.20;92.10;;;;;;5034065;28;20053;-80
2022/08/30 12:25:20;;;;;;;2.10;0.80;;;24.00;92.70;;;;;;5034137;28;20049;-79
2022/08/30 12:27:46;;;;;;;1.65;0.70;;;24.00;93.50;;;;;;5034379;28;20045;-79
2022/08/30 12:30:12;;;;;;;3.13;0.90;;;23.80;93.30;;;;;;5033386;28;20038;-79
2022/08/30 12:32:46;;;;;;;1.98;1.00;;;23.70;93.80;;;;;;5033878;28;20481;-80
2022/08/30 12:35:22;;;;;;;1.98;1.00;;;23.70;93.90;;;;;;5033972;28;20056;-77
2022/08/30 12:38:04;;;;;;;2.15;0.73;;;23.80;94.00;;;;;;5032803;28;20049;-80
2022/08/30 12:40:33;;;;;;;2.15;0.98;;;23.80;93.60;;;;;;5034303;28;20050;-77
2022/08/30 12:43:17;;;;;;;5.05;1.15;;;23.60;93.60;;;;;;5032645;28;20038;-77
2022/08/30 12:45:46;;;;;;;1.60;0.80;;;23.50;94.00;;;;;;5016616;28;20045;-77
2022/08/30 12:48:16;;;;;;;1.65;0.70;;;23.50;94.40;;;;;;5033740;28;20046;-76
2022/08/30 12:50:52;;;;;;;1.85;0.90;;;23.80;94.40;;;;;;5033797;28;20084;-77
2022/08/30 12:53:35;;;;;;;2.67;0.80;;;23.90;94.00;;;;;;5034110;28;20443;-78
2022/08/30 12:56:06;;;;;;;1.65;0.73;;;24.10;93.80;;;;;;5033995;28;20049;-77
2022/08/30 12:58:39;;;;;;;2.25;0.90;;;24.10;93.20;;;;;;5033479;28;20510;-78
2022/08/30 13:01:17;;;;;;;2.42;1.00;;;23.90;92.90;;;;;;5033583;28;20060;-78
2022/08/30 13:04:12;;;;;;;1.50;0.82;;;23.60;93.30;;;;;;5033546;28;20042;-78
2022/08/30 13:06:51;;;;;;;1.92;0.90;;;23.60;93.60;;;;;;5033731;28;20053;-77
2022/08/30 13:09:42;;;;;;;1.65;0.80;;;23.50;93.60;;;;;;5033558;28;20494;-78
2022/08/30 13:12:26;;;;;;;2.92;0.85;;;23.60;92.70;;;;;;5032397;28;20053;-77
2022/08/30 13:15:07;;;;;;;1.60;0.82;;;23.60;93.30;;;;;;5033670;28;20111;-78